createdAt,value
2022-09-09T00:00:25.261Z,20.04
2022-09-09T00:03:22.136Z,20.02
2022-09-09T00:06:02.769Z,20.03
2022-09-09T00:08:48.390Z,20.02
2022-09-09T00:11:31.469Z,20.01
2022-09-09T00:14:12.439Z,19.99
2022-09-09T00:16:51.699Z,19.96
2022-09-09T00:19:31.509Z,19.94
2022-09-09T00:22:17.387Z,19.86
2022-09-09T00:24:54.483Z,19.71
2022-09-09T00:27:33.333Z,19.83
2022-09-09T00:30:17.273Z,19.85
2022-09-09T00:32:50.060Z,19.86
2022-09-09T00:35:27.081Z,19.85
2022-09-09T00:38:03.817Z,19.82
2022-09-09T00:40:41.298Z,19.81
2022-09-09T00:43:32.434Z,19.71
2022-09-09T00:46:44.516Z,19.71
2022-09-09T00:49:28.749Z,19.61
2022-09-09T00:52:11.735Z,19.57
2022-09-09T00:54:53.947Z,19.70
2022-09-09T00:57:32.270Z,19.69
2022-09-09T01:00:22.381Z,19.70
2022-09-09T01:03:12.654Z,19.65
2022-09-09T01:05:52.320Z,19.65
2022-09-09T01:08:45.528Z,19.63
2022-09-09T01:11:27.020Z,19.57
2022-09-09T01:14:12.894Z,19.52
2022-09-09T01:16:50.002Z,19.51
2022-09-09T01:19:36.052Z,19.45
2022-09-09T01:22:18.029Z,19.45
2022-09-09T01:25:11.025Z,19.39
2022-09-09T01:28:01.692Z,19.34
2022-09-09T01:30:35.464Z,19.37
2022-09-09T01:33:07.908Z,19.37
2022-09-09T01:35:49.290Z,19.36
2022-09-09T01:38:22.850Z,19.35
2022-09-09T01:40:56.814Z,19.29
2022-09-09T01:43:36.181Z,19.28
2022-09-09T01:46:08.501Z,19.22
2022-09-09T01:48:42.888Z,19.22
2022-09-09T01:51:16.295Z,19.21
2022-09-09T01:53:49.071Z,19.21
2022-09-09T01:56:36.118Z,19.19
2022-09-09T01:59:20.945Z,19.09
2022-09-09T02:02:08.575Z,19.16
2022-09-09T02:04:46.700Z,19.15
2022-09-09T02:07:40.208Z,19.11
2022-09-09T02:10:25.081Z,19.07
2022-09-09T02:13:11.004Z,19.04
2022-09-09T02:15:49.684Z,19.02
2022-09-09T02:18:28.244Z,18.98
2022-09-09T02:21:01.801Z,18.97
2022-09-09T02:23:36.669Z,18.96
2022-09-09T02:26:14.361Z,18.93
2022-09-09T02:28:48.404Z,18.91
2022-09-09T02:31:24.522Z,18.88
2022-09-09T02:34:01.959Z,18.85
2022-09-09T02:36:36.356Z,18.83
2022-09-09T02:39:12.309Z,18.81
2022-09-09T02:41:45.829Z,18.78
2022-09-09T02:44:20.115Z,18.74
2022-09-09T02:47:18.473Z,18.71
2022-09-09T02:50:05.663Z,18.68
2022-09-09T02:52:46.959Z,18.64
2022-09-09T02:55:26.850Z,18.60
2022-09-09T02:58:01.532Z,18.56
2022-09-09T03:00:34.296Z,18.53
2022-09-09T03:03:07.224Z,18.49
2022-09-09T03:05:39.924Z,18.45
2022-09-09T03:08:12.787Z,18.41
2022-09-09T03:10:45.314Z,18.40
2022-09-09T03:13:20.317Z,18.39
2022-09-09T03:15:52.879Z,18.37
2022-09-09T03:18:26.264Z,18.32
2022-09-09T03:21:00.719Z,18.32
2022-09-09T03:23:33.203Z,18.20
2022-09-09T03:26:06.749Z,18.26
2022-09-09T03:28:46.174Z,18.21
2022-09-09T03:31:21.006Z,18.20
2022-09-09T03:33:53.323Z,18.16
2022-09-09T03:36:27.302Z,18.14
2022-09-09T03:39:00.352Z,18.11
2022-09-09T03:41:33.531Z,18.07
2022-09-09T03:44:06.756Z,18.05
2022-09-09T03:46:42.762Z,18.02
2022-09-09T03:49:16.403Z,18.01
2022-09-09T03:51:48.857Z,18.01
2022-09-09T03:54:21.719Z,18.00
2022-09-09T03:56:54.763Z,18.00
2022-09-09T03:59:31.143Z,18.02
2022-09-09T04:02:03.864Z,18.04
2022-09-09T04:04:36.107Z,18.06
2022-09-09T04:07:08.512Z,18.09
2022-09-09T04:09:40.886Z,18.09
2022-09-09T04:12:14.307Z,18.12
2022-09-09T04:14:47.260Z,18.11
2022-09-09T04:17:19.590Z,18.17
2022-09-09T04:19:51.814Z,18.19
2022-09-09T04:22:25.256Z,18.21
2022-09-09T04:24:57.978Z,18.22
2022-09-09T04:27:30.798Z,18.23
2022-09-09T04:30:03.881Z,18.22
2022-09-09T04:32:37.954Z,18.25
2022-09-09T04:35:11.534Z,18.24
2022-09-09T04:37:43.838Z,18.28
2022-09-09T04:40:17.096Z,18.18
2022-09-09T04:42:50.691Z,18.29
2022-09-09T04:45:22.844Z,18.10
2022-09-09T04:47:55.377Z,18.30
2022-09-09T04:50:27.860Z,18.28
2022-09-09T04:53:05.898Z,18.26
2022-09-09T04:55:38.710Z,18.17
2022-09-09T04:58:11.800Z,18.24
2022-09-09T05:00:44.660Z,18.22
2022-09-09T05:03:18.066Z,18.22
2022-09-09T05:05:50.218Z,18.20
2022-09-09T05:08:22.232Z,18.18
2022-09-09T05:10:54.416Z,18.17
2022-09-09T05:13:27.478Z,18.17
2022-09-09T05:15:59.900Z,18.14
2022-09-09T05:18:32.929Z,18.13
2022-09-09T05:21:05.811Z,18.13
2022-09-09T05:23:39.176Z,18.16
2022-09-09T05:26:17.638Z,18.16
2022-09-09T05:28:51.038Z,18.16
2022-09-09T05:31:23.708Z,18.16
2022-09-09T05:33:56.382Z,18.17
2022-09-09T05:36:28.828Z,18.16
2022-09-09T05:39:02.399Z,18.18
2022-09-09T05:41:35.936Z,18.20
2022-09-09T05:44:09.407Z,18.22
2022-09-09T05:46:45.846Z,18.25
2022-09-09T05:49:19.169Z,18.26
2022-09-09T05:51:52.070Z,18.29
2022-09-09T05:54:25.347Z,18.30
2022-09-09T05:56:58.434Z,18.32
2022-09-09T05:59:33.270Z,18.34
2022-09-09T06:02:05.620Z,18.36
2022-09-09T06:04:41.039Z,18.38
2022-09-09T06:07:15.554Z,18.39
2022-09-09T06:09:48.330Z,18.34
2022-09-09T06:12:21.987Z,18.33
2022-09-09T06:14:54.465Z,18.47
2022-09-09T06:17:26.472Z,18.50
2022-09-09T06:19:59.401Z,18.52
2022-09-09T06:22:32.058Z,18.59
2022-09-09T06:25:05.112Z,18.64
2022-09-09T06:27:37.391Z,18.66
2022-09-09T06:30:12.389Z,18.70
2022-09-09T06:32:44.663Z,18.60
2022-09-09T06:35:17.908Z,18.69
2022-09-09T06:37:50.431Z,18.77
2022-09-09T06:40:23.333Z,18.87
2022-09-09T06:42:55.751Z,18.89
2022-09-09T06:45:40.249Z,18.94
2022-09-09T06:48:14.151Z,19.03
2022-09-09T06:50:46.222Z,19.03
2022-09-09T06:53:21.181Z,19.07
2022-09-09T06:55:53.995Z,19.09
2022-09-09T06:58:26.540Z,19.11
2022-09-09T07:01:07.653Z,19.18
2022-09-09T07:03:39.994Z,19.21
2022-09-09T07:06:16.268Z,19.26
2022-09-09T07:08:56.439Z,19.33
2022-09-09T07:11:33.541Z,19.39
2022-09-09T07:14:05.948Z,19.47
2022-09-09T07:16:38.472Z,19.47
2022-09-09T07:19:10.916Z,19.53
2022-09-09T07:21:44.588Z,19.55
2022-09-09T07:24:18.655Z,19.58
2022-09-09T07:26:53.183Z,19.63
2022-09-09T07:29:25.460Z,19.70
2022-09-09T07:31:57.948Z,19.71
2022-09-09T07:34:32.977Z,19.87
2022-09-09T07:37:05.310Z,19.81
2022-09-09T07:39:38.483Z,19.81
2022-09-09T07:42:12.278Z,19.82
2022-09-09T07:44:45.231Z,19.87
2022-09-09T07:47:19.913Z,19.98
2022-09-09T07:49:55.239Z,20.04
2022-09-09T07:52:31.210Z,20.07
2022-09-09T07:55:07.338Z,20.12
2022-09-09T07:57:39.844Z,20.13
2022-09-09T08:00:16.107Z,20.20
2022-09-09T08:02:49.920Z,20.28
2022-09-09T08:05:23.385Z,20.26
2022-09-09T08:07:56.427Z,20.25
2022-09-09T08:10:28.989Z,20.26
2022-09-09T08:13:17.328Z,20.23
2022-09-09T08:15:52.253Z,20.33
2022-09-09T08:18:25.026Z,20.37
2022-09-09T08:20:57.242Z,20.29
2022-09-09T08:23:30.163Z,20.47
2022-09-09T08:26:10.190Z,20.42
2022-09-09T08:28:46.311Z,20.57
2022-09-09T08:31:20.952Z,20.47
2022-09-09T08:33:53.925Z,20.64
2022-09-09T08:36:28.277Z,20.71
2022-09-09T08:39:02.061Z,20.79
2022-09-09T08:42:06.333Z,20.76
2022-09-09T08:44:52.173Z,20.92
2022-09-09T08:47:34.316Z,21.04
2022-09-09T08:50:22.738Z,21.09
2022-09-09T08:53:01.686Z,21.17
2022-09-09T08:55:42.547Z,21.13
2022-09-09T08:58:19.033Z,21.19
2022-09-09T09:01:28.150Z,21.25
2022-09-09T09:04:09.996Z,21.26
2022-09-09T09:06:56.211Z,21.40
2022-09-09T09:09:35.395Z,21.39
2022-09-09T09:12:19.414Z,21.48
2022-09-09T09:14:52.129Z,21.39
2022-09-09T09:17:29.043Z,21.49
2022-09-09T09:20:01.794Z,21.57
2022-09-09T09:22:41.428Z,21.62
2022-09-09T09:25:20.089Z,21.77
2022-09-09T09:28:01.748Z,21.87
2022-09-09T09:30:42.695Z,21.89
2022-09-09T09:33:23.929Z,22.02
2022-09-09T09:35:56.448Z,22.12
2022-09-09T09:41:33.097Z,22.17
2022-09-09T09:44:06.378Z,22.28
2022-09-09T09:46:38.698Z,22.43
2022-09-09T09:49:16.990Z,22.48
2022-09-09T09:51:50.245Z,22.41
2022-09-09T09:54:30.015Z,22.56
2022-09-09T09:57:14.333Z,22.69
2022-09-09T09:59:48.226Z,22.76
2022-09-09T10:02:28.448Z,22.92
2022-09-09T10:05:15.445Z,22.96
2022-09-09T10:08:02.389Z,22.98
2022-09-09T10:10:49.400Z,22.97
2022-09-09T10:13:28.234Z,23.11
2022-09-09T10:16:11.950Z,23.26
2022-09-09T10:18:57.095Z,23.35
2022-09-09T10:21:52.458Z,23.35
2022-09-09T10:24:41.153Z,23.31
2022-09-09T10:27:22.469Z,23.18
2022-09-09T10:30:09.851Z,23.30
2022-09-09T10:32:48.460Z,23.50
2022-09-09T10:35:31.352Z,23.56
2022-09-09T10:38:18.877Z,23.47
2022-09-09T10:41:09.432Z,23.29
2022-09-09T10:44:01.731Z,23.53
2022-09-09T10:46:47.199Z,23.56
2022-09-09T10:49:34.338Z,23.36
2022-09-09T10:52:17.454Z,23.81
2022-09-09T10:54:59.186Z,23.64
2022-09-09T10:57:37.643Z,23.59
2022-09-09T11:00:20.502Z,23.69
2022-09-09T11:02:57.789Z,23.53
2022-09-09T11:05:36.911Z,23.70
2022-09-09T11:08:13.194Z,23.68
2022-09-09T11:10:53.659Z,23.71
2022-09-09T11:13:32.683Z,24.00
2022-09-09T11:16:21.948Z,24.19
2022-09-09T11:18:57.663Z,24.32
2022-09-09T11:21:36.798Z,24.49
2022-09-09T11:24:17.581Z,24.45
2022-09-09T11:26:55.240Z,24.54
2022-09-09T11:30:04.507Z,24.54
2022-09-09T11:33:03.218Z,24.53
2022-09-09T11:35:46.646Z,24.74
2022-09-09T11:38:26.836Z,24.57
2022-09-09T11:41:01.456Z,24.28
2022-09-09T11:43:36.203Z,24.12
2022-09-09T11:46:08.914Z,24.07
2022-09-09T11:48:45.550Z,24.15
2022-09-09T11:51:30.818Z,23.90
2022-09-09T11:54:03.709Z,23.68
2022-09-09T11:56:45.750Z,23.67
2022-09-09T11:59:26.830Z,24.06
2022-09-09T12:02:02.740Z,24.26
2022-09-09T12:04:40.820Z,24.06
2022-09-09T12:07:34.941Z,23.96
2022-09-09T12:10:26.236Z,24.32
2022-09-09T12:13:10.301Z,24.56
2022-09-09T12:15:51.880Z,24.77
2022-09-09T12:18:28.405Z,24.95
2022-09-09T12:21:10.130Z,25.05
2022-09-09T12:23:50.676Z,25.23
2022-09-09T12:26:34.973Z,25.33
2022-09-09T12:29:21.734Z,25.46
2022-09-09T12:32:02.418Z,25.55
2022-09-09T12:34:40.899Z,25.57
2022-09-09T12:37:26.657Z,25.67
2022-09-09T12:40:00.716Z,25.42
2022-09-09T12:42:36.856Z,25.33
2022-09-09T12:45:22.033Z,25.09
2022-09-09T12:47:57.697Z,24.91
2022-09-09T12:50:32.301Z,24.73
2022-09-09T12:53:09.458Z,24.73
2022-09-09T12:55:51.702Z,24.59
2022-09-09T12:58:25.243Z,24.49
2022-09-09T13:00:58.627Z,24.45
2022-09-09T13:03:31.498Z,24.71
2022-09-09T13:06:16.718Z,24.91
2022-09-09T13:08:49.257Z,25.06
2022-09-09T13:11:26.769Z,25.00
2022-09-09T13:14:00.971Z,25.17
2022-09-09T13:16:39.066Z,25.05
2022-09-09T13:19:18.799Z,25.23
2022-09-09T13:21:51.742Z,25.24
2022-09-09T13:24:32.452Z,24.97
2022-09-09T13:27:07.403Z,24.76
2022-09-09T13:29:41.601Z,24.62
2022-09-09T13:32:20.876Z,24.55
2022-09-09T13:34:56.948Z,24.55
2022-09-09T13:37:35.974Z,24.55
2022-09-09T13:40:19.429Z,24.58
2022-09-09T13:42:57.343Z,24.85
2022-09-09T13:45:30.427Z,24.99
2022-09-09T13:48:13.051Z,25.04
2022-09-09T13:50:55.681Z,25.20
2022-09-09T13:53:28.021Z,25.19
2022-09-09T13:56:00.537Z,25.10
2022-09-09T13:58:32.570Z,24.95
2022-09-09T14:01:04.695Z,24.76
2022-09-09T14:03:38.279Z,24.58
2022-09-09T14:06:11.308Z,24.47
2022-09-09T14:08:43.541Z,24.53
2022-09-09T14:11:16.509Z,24.42
2022-09-09T14:13:50.893Z,24.35
2022-09-09T14:16:23.082Z,24.21
2022-09-09T14:18:57.282Z,24.23
2022-09-09T14:21:35.855Z,24.12
2022-09-09T14:24:09.088Z,24.06
2022-09-09T14:26:41.916Z,23.98
2022-09-09T14:29:14.553Z,23.94
2022-09-09T14:31:53.179Z,23.88
2022-09-09T14:34:27.780Z,23.88
2022-09-09T14:37:00.131Z,23.92
2022-09-09T14:39:38.319Z,24.00
2022-09-09T14:42:13.070Z,24.07
2022-09-09T14:44:45.476Z,24.11
2022-09-09T14:47:17.846Z,24.06
2022-09-09T14:49:50.723Z,24.02
2022-09-09T14:52:22.894Z,23.92
2022-09-09T14:54:55.171Z,23.93
2022-09-09T14:57:27.735Z,23.87
2022-09-09T15:00:00.739Z,23.83
2022-09-09T15:02:33.038Z,23.81
2022-09-09T15:05:05.544Z,23.71
2022-09-09T15:07:38.315Z,23.79
2022-09-09T15:10:12.249Z,23.75
2022-09-09T15:12:44.681Z,23.71
2022-09-09T15:15:17.275Z,23.66
2022-09-09T15:17:49.345Z,23.60
2022-09-09T15:20:21.520Z,23.55
2022-09-09T15:22:53.993Z,23.53
2022-09-09T15:25:26.315Z,23.51
2022-09-09T15:27:58.570Z,23.46
2022-09-09T15:30:31.247Z,23.43
2022-09-09T15:33:03.488Z,23.40
2022-09-09T15:35:35.967Z,23.35
2022-09-09T15:38:08.146Z,23.30
2022-09-09T15:40:40.494Z,23.28
2022-09-09T15:43:14.129Z,23.23
2022-09-09T15:45:48.105Z,23.20
2022-09-09T15:48:21.902Z,23.17
2022-09-09T15:51:19.437Z,23.15
2022-09-09T15:54:01.233Z,23.12
2022-09-09T15:56:35.924Z,23.10
2022-09-09T15:59:10.968Z,23.09
2022-09-09T16:01:44.222Z,23.07
2022-09-09T16:04:24.148Z,22.97
2022-09-09T16:06:58.656Z,23.04
2022-09-09T16:09:32.569Z,23.03
2022-09-09T16:12:10.759Z,23.02
2022-09-09T16:14:43.426Z,22.89
2022-09-09T16:17:16.401Z,22.98
2022-09-09T16:19:48.711Z,22.94
2022-09-09T16:22:21.491Z,22.91
2022-09-09T16:24:53.793Z,22.89
2022-09-09T16:27:27.237Z,22.89
2022-09-09T16:29:59.399Z,22.89
2022-09-09T16:32:31.865Z,22.89
2022-09-09T16:35:04.660Z,22.87
2022-09-09T16:37:37.215Z,22.86
2022-09-09T16:40:13.638Z,22.85
2022-09-09T16:42:46.516Z,22.85
2022-09-09T16:45:19.158Z,22.85
2022-09-09T16:47:51.634Z,22.83
2022-09-09T16:50:23.872Z,22.84
2022-09-09T16:52:56.332Z,22.75
2022-09-09T16:55:28.441Z,22.82
2022-09-09T16:58:00.737Z,22.81
2022-09-09T17:00:33.313Z,22.76
2022-09-09T17:03:06.302Z,22.73
2022-09-09T17:05:43.677Z,22.72
2022-09-09T17:08:16.048Z,22.68
2022-09-09T17:10:48.552Z,22.65
2022-09-09T17:13:21.566Z,22.57
2022-09-09T17:15:54.213Z,22.57
2022-09-09T17:18:29.346Z,22.52
2022-09-09T17:21:07.654Z,22.49
2022-09-09T17:23:40.482Z,22.47
2022-09-09T17:26:15.741Z,22.43
2022-09-09T17:28:48.142Z,22.34
2022-09-09T17:31:21.629Z,22.29
2022-09-09T17:33:54.683Z,22.26
2022-09-09T17:36:30.066Z,22.23
2022-09-09T17:39:03.784Z,22.19
2022-09-09T17:41:37.800Z,22.11
2022-09-09T17:44:11.345Z,22.09
2022-09-09T17:46:46.470Z,22.04
2022-09-09T17:49:20.022Z,21.99
2022-09-09T17:51:52.823Z,21.94
2022-09-09T17:54:25.218Z,21.85
2022-09-09T17:56:58.651Z,21.76
2022-09-09T17:59:31.457Z,21.77
2022-09-09T18:02:05.550Z,21.71
2022-09-09T18:04:39.017Z,21.62
2022-09-09T18:07:11.132Z,21.61
2022-09-09T18:09:43.805Z,21.55
2022-09-09T18:12:16.737Z,21.49
2022-09-09T18:14:50.914Z,21.44
2022-09-09T18:17:23.602Z,21.42
2022-09-09T18:19:56.099Z,21.40
2022-09-09T18:22:28.771Z,21.36
2022-09-09T18:25:01.417Z,21.32
2022-09-09T18:27:33.706Z,21.31
2022-09-09T18:30:06.776Z,21.29
2022-09-09T18:32:39.296Z,21.24
2022-09-09T18:35:11.877Z,21.17
2022-09-09T18:37:44.468Z,21.07
2022-09-09T18:40:17.003Z,21.14
2022-09-09T18:42:51.115Z,21.11
2022-09-09T18:45:23.795Z,21.07
2022-09-09T18:47:57.214Z,21.03
2022-09-09T18:50:29.470Z,20.99
2022-09-09T18:53:01.502Z,20.96
2022-09-09T18:55:34.424Z,20.92
2022-09-09T18:58:07.129Z,20.87
2022-09-09T19:00:39.437Z,20.85
2022-09-09T19:03:11.714Z,20.80
2022-09-09T19:05:44.040Z,20.80
2022-09-09T19:08:16.809Z,20.77
2022-09-09T19:10:49.370Z,20.74
2022-09-09T19:13:21.976Z,20.75
2022-09-09T19:15:55.132Z,20.77
2022-09-09T19:18:28.138Z,20.76
2022-09-09T19:21:09.511Z,20.72
2022-09-09T19:23:42.584Z,20.71
2022-09-09T19:26:17.127Z,20.70
2022-09-09T19:28:50.221Z,20.67
2022-09-09T19:31:24.033Z,20.65
2022-09-09T19:33:57.251Z,20.63
2022-09-09T19:36:29.989Z,20.59
2022-09-09T19:39:03.396Z,20.54
2022-09-09T19:41:38.213Z,20.50
2022-09-09T19:44:09.884Z,20.48
2022-09-09T19:46:44.785Z,20.46
2022-09-09T19:49:17.722Z,20.43
2022-09-09T19:51:50.175Z,20.43
2022-09-09T19:54:23.149Z,20.40
2022-09-09T19:56:55.368Z,20.37
2022-09-09T19:59:28.286Z,20.34
2022-09-09T20:02:00.582Z,20.29
2022-09-09T20:04:34.180Z,20.29
2022-09-09T20:07:06.649Z,20.28
2022-09-09T20:09:38.720Z,20.25
2022-09-09T20:12:11.148Z,20.23
2022-09-09T20:14:43.710Z,20.19
2022-09-09T20:17:16.428Z,20.16
2022-09-09T20:19:49.187Z,20.12
2022-09-09T20:22:21.454Z,20.13
2022-09-09T20:24:53.650Z,20.11
2022-09-09T20:27:27.905Z,20.12
2022-09-09T20:30:00.708Z,19.95
2022-09-09T20:32:33.333Z,20.02
2022-09-09T20:35:06.137Z,20.10
2022-09-09T20:37:40.900Z,20.10
2022-09-09T20:40:13.525Z,20.09
2022-09-09T20:42:45.809Z,20.09
2022-09-09T20:45:18.404Z,20.08
2022-09-09T20:47:51.038Z,20.09
2022-09-09T20:50:23.854Z,20.09
2022-09-09T20:52:56.351Z,20.08
2022-09-09T20:55:29.236Z,20.09
2022-09-09T20:58:01.390Z,20.11
2022-09-09T21:00:34.100Z,20.13
2022-09-09T21:03:06.747Z,20.16
2022-09-09T21:05:39.250Z,20.18
2022-09-09T21:08:11.774Z,20.16
2022-09-09T21:10:49.052Z,20.17
2022-09-09T21:13:22.238Z,20.19
2022-09-09T21:15:55.039Z,20.19
2022-09-09T21:18:29.355Z,20.22
2022-09-09T21:21:02.520Z,20.24
2022-09-09T21:23:35.476Z,20.24
2022-09-09T21:26:09.861Z,20.25
2022-09-09T21:28:41.974Z,20.26
2022-09-09T21:31:17.091Z,20.28
2022-09-09T21:33:49.625Z,20.29
2022-09-09T21:36:21.629Z,20.27
2022-09-09T21:38:54.081Z,20.29
2022-09-09T21:41:26.377Z,20.19
2022-09-09T21:43:58.863Z,20.28
2022-09-09T21:46:31.090Z,20.28
2022-09-09T21:49:04.177Z,20.27
2022-09-09T21:51:36.781Z,20.28
2022-09-09T21:54:09.204Z,20.31
2022-09-09T21:56:41.344Z,20.32
2022-09-09T21:59:13.422Z,20.29
2022-09-09T22:01:48.294Z,20.31
2022-09-09T22:04:18.939Z,20.29
2022-09-09T22:06:51.347Z,20.31
2022-09-09T22:09:23.275Z,20.30
2022-09-09T22:11:55.350Z,20.32
2022-09-09T22:14:27.822Z,20.32
2022-09-09T22:17:00.092Z,20.32
2022-09-09T22:19:33.441Z,20.30
2022-09-09T22:22:05.973Z,20.30
2022-09-09T22:24:38.956Z,20.31
2022-09-09T22:27:11.664Z,20.31
2022-09-09T22:29:44.577Z,20.32
2022-09-09T22:32:17.448Z,20.48
2022-09-09T22:34:51.255Z,20.36
2022-09-09T22:37:23.307Z,20.32
2022-09-09T22:39:55.804Z,20.24
2022-09-09T22:42:27.857Z,20.16
2022-09-09T22:45:00.324Z,20.10
2022-09-09T22:47:33.120Z,20.15
2022-09-09T22:50:06.263Z,20.09
2022-09-09T22:52:38.776Z,20.14
2022-09-09T22:55:11.748Z,20.17
2022-09-09T22:57:44.120Z,20.19
2022-09-09T23:00:18.796Z,20.17
2022-09-09T23:02:51.050Z,20.18
2022-09-09T23:05:26.091Z,20.05
2022-09-09T23:07:58.799Z,20.24
2022-09-09T23:10:32.190Z,20.25
2022-09-09T23:13:04.166Z,20.27
2022-09-09T23:15:37.245Z,20.31
2022-09-09T23:18:10.078Z,20.32
2022-09-09T23:20:43.176Z,20.31
2022-09-09T23:23:15.488Z,20.27
2022-09-09T23:25:49.112Z,20.28
2022-09-09T23:28:21.360Z,20.24
2022-09-09T23:30:53.503Z,20.26
2022-09-09T23:33:26.036Z,20.28
2022-09-09T23:36:07.875Z,20.28
2022-09-09T23:38:41.356Z,20.27
2022-09-09T23:41:15.954Z,20.27
2022-09-09T23:43:48.005Z,20.25
2022-09-09T23:46:22.608Z,20.25
2022-09-09T23:48:57.040Z,20.26
2022-09-09T23:51:31.208Z,20.23
2022-09-09T23:54:05.232Z,20.21
2022-09-09T23:56:39.856Z,20.11
2022-09-09T23:59:12.238Z,20.18
